Latest Weather Observations for Jacup

IDW60801

Issued at 10:35 pm WST Thursday 2 October 2014 (issued every 30 minutes, with the page automatically refreshed every 10 minutes)

About weather observations | Map of weather stations | Latest weather observations for WA | Other Formats
Station Details ID: 010905 Name: JACUP Lat: -33.89 Lon: 119.11 Height: 305.0 m
Data from the previous 72 hours. | See also: Recent months at Jacup
Date/Time
WST
Temp
°C
App
Temp
°C
Dew
Point
Rel
Hum
%
Delta-T
°C
Wind Press
QNH
hPa
Press
MSL
hPa
Rain
since 9 am
mm
Dir
 
Spd
km/h
Gust
km/h
Spd
kts
Gust
kts
02/10:30pm 16.9 14.8 12.4 75 2.5 SW 15 24 8 13 1013.2 1012.8 0.0
02/10:00pm 17.3 15.6 12.6 74 2.6 WSW 13 20 7 11 1013.1 1012.7 0.0
02/09:30pm 16.4 14.1 10.5 68 3.2 W 13 19 7 10 1012.8 1012.4 0.0
02/09:00pm 17.1 15.6 10.5 65 3.6 WNW 9 13 5 7 1012.4 1012.0 0.0
02/08:30pm 17.7 16.2 10.6 63 3.9 W 9 11 5 6 1012.2 1011.8 0.0
02/08:00pm 17.9 16.6 10.0 60 4.3 W 7 9 4 5 1012.0 1011.6 0.0
02/07:30pm 19.1 17.8 9.9 55 5.0 W 7 9 4 5 1011.7 1011.3 0.0
02/07:00pm 19.7 18.3 9.6 52 5.5 WSW 7 9 4 5 1011.5 1011.1 0.0
02/06:30pm 22.1 21.3 9.6 45 6.8 WNW 4 7 2 4 1011.0 1010.6 0.0
02/06:00pm 24.9 22.7 9.2 37 8.7 W 11 15 6 8 1010.6 1010.1 0.0
02/05:30pm 27.5 24.4 8.9 31 10.3 W 15 24 8 13 1010.3 1009.9 0.0
02/05:00pm 29.3 25.1 8.4 27 11.6 W 20 28 11 15 1010.0 1009.6 0.0
02/04:30pm 30.5 25.9 8.3 25 12.4 W 22 35 12 19 1010.0 1009.6 0.0
02/04:00pm 30.6 26.8 7.7 24 12.7 WNW 17 28 9 15 1009.8 1009.4 0.0
02/03:30pm 31.6 26.9 7.9 23 13.2 WNW 22 33 12 18 1009.8 1009.4 0.0
02/03:00pm 31.7 27.8 8.7 24 13.0 WNW 19 32 10 17 1010.1 1009.7 0.0
02/02:30pm 31.2 26.8 7.6 23 13.1 N 20 30 11 16 1010.3 1009.9 0.0
02/02:00pm 30.2 25.7 6.8 23 12.7 N 20 35 11 19 1010.7 1010.3 0.0
02/01:30pm 31.5 25.4 6.5 21 13.6 N 28 48 15 26 1011.1 1010.7 0.0
02/01:29pm 31.7 25.6 6.7 21 13.7 N 28 48 15 26 1011.2 1010.8 0.0
02/01:00pm 30.1 24.8 6.7 23 12.7 N 24 37 13 20 1011.6 1011.2 0.0
02/12:30pm 29.6 23.7 7.5 25 12.1 NNE 28 43 15 23 1012.2 1011.8 0.0
02/12:00pm 28.7 22.8 7.3 26 11.7 NNE 28 46 15 25 1012.6 1012.2 0.0
02/11:30am 28.4 20.4 7.6 27 11.4 NNE 39 57 21 31 1013.0 1012.6 0.0
02/11:21am 28.1 20.3 6.8 26 11.5 NNE 37 57 20 31 1013.2 1012.8 0.0
02/11:00am 28.7 21.4 7.3 26 11.6 NNE 35 52 19 28 1013.6 1013.3 0.0
02/10:50am 28.1 21.8 7.4 27 11.3 NNE 30 48 16 26 1013.7 1013.4 0.0
02/10:30am 27.0 21.3 8.4 31 10.2 NNE 28 39 15 21 1014.1 1013.7 0.0
02/10:00am 25.2 19.0 7.8 33 9.4 NNE 30 43 16 23 1014.6 1014.2 0.0
02/09:30am 22.2 18.3 9.4 44 7.0 NNE 20 30 11 16 1015.1 1014.7 0.0
02/09:00am 22.2 17.4 8.7 42 7.3 NNE 24 39 13 21 1015.6 1015.2 0.2
02/08:30am 20.8 16.3 8.4 45 6.6 NNE 22 32 12 17 1015.4 1015.0 0.2
02/08:00am 19.9 15.9 8.9 49 5.9 NE 20 30 11 16 1015.4 1015.0 0.2
02/07:30am 18.5 14.0 8.5 52 5.2 NNE 22 33 12 18 1015.8 1015.4 0.2
02/07:00am 17.0 13.3 9.4 61 4.0 NNE 19 30 10 16 1016.4 1016.1 0.2
02/06:30am 16.9 13.0 9.6 62 3.9 NNE 20 33 11 18 1016.7 1016.4 0.2
02/06:00am 16.2 11.9 10.7 70 3.0 NE 24 32 13 17 1016.8 1016.5 0.2
02/05:30am 15.3 11.9 11.3 77 2.2 N 20 26 11 14 1018.3 1017.9 0.2
02/05:00am 14.1 13.6 12.5 90 0.9 N 7 11 4 6 1017.8 1017.4 0.2
02/04:30am 13.8 13.3 12.0 89 1.0 NE 6 7 3 4 1017.3 1017.0 0.2
02/04:00am 13.7 14.5 12.6 93 0.6 CALM 0 0 0 0 1017.3 1017.0 0.2
02/03:30am 13.9 14.7 12.6 92 0.7 CALM 0 0 0 0 1017.7 1017.3 0.2
02/03:00am 13.9 13.9 12.5 91 0.8 NNE 4 9 2 5 1017.2 1016.9 0.2
02/02:30am 14.2 14.9 12.1 87 1.2 CALM 0 6 0 3 1018.2 1017.8 0.0
02/02:00am 14.7 13.5 11.5 81 1.7 W 9 13 5 7 1018.8 1018.4 0.0
02/01:30am 15.5 13.0 10.9 74 2.5 WNW 15 24 8 13 1019.1 1018.8 0.0
02/01:00am 15.6 13.5 11.0 74 2.5 NNE 13 17 7 9 1017.6 1017.2 0.0
02/12:30am 14.0 12.8 11.7 86 1.3 ENE 9 11 5 6 1017.9 1017.5 0.0
02/12:00am 14.3 13.2 11.8 85 1.4 ENE 9 11 5 6 1018.2 1017.8 0.0
 
Date/Time
WST
Temp
°C
App
Temp
°C
Dew
Point
Rel
Hum
%
Delta-T
°C
Wind Press
QNH
hPa
Press
MSL
hPa
Rain
since 9 am
mm
Dir
 
Spd
km/h
Gust
km/h
Spd
kts
Gust
kts
01/11:30pm 14.2 11.9 11.9 86 1.3 NE 15 19 8 10 1018.3 1017.9 0.0
01/11:00pm 14.4 11.4 11.9 85 1.4 E 19 28 10 15 1018.4 1018.0 0.0
01/10:30pm 14.4 12.5 11.9 85 1.4 E 13 19 7 10 1019.4 1019.1 0.0
01/10:00pm 14.5 11.9 12.0 85 1.4 ENE 17 22 9 12 1020.0 1019.7 0.0
01/09:30pm 14.4 12.3 12.4 88 1.1 ENE 15 20 8 11 1020.5 1020.2 0.0
01/09:00pm 14.5 11.7 12.7 89 1.0 E 19 24 10 13 1020.5 1020.2 0.0
01/08:30pm 14.6 12.0 13.1 91 0.8 E 19 26 10 14 1020.6 1020.3 0.0
01/08:00pm 14.7 11.9 13.1 90 0.9 E 20 26 11 14 1020.6 1020.3 0.0
01/07:30pm 14.9 12.0 12.8 87 1.2 E 20 26 11 14 1020.6 1020.3 0.0
01/07:00pm 15.2 12.7 12.3 83 1.6 E 17 24 9 13 1020.6 1020.3 0.0
01/06:30pm 16.2 13.3 12.2 77 2.2 E 19 26 10 14 1020.4 1020.1 0.0
01/06:00pm 17.5 13.5 11.8 69 3.2 E 24 32 13 17 1020.1 1019.8 0.0
01/05:30pm 18.8 14.7 11.6 63 4.0 E 24 35 13 19 1020.1 1019.8 0.0
01/05:00pm 20.4 16.4 11.9 58 4.8 E 24 33 13 18 1020.0 1019.7 0.0
01/04:30pm 21.5 16.9 11.2 52 5.8 E 26 39 14 21 1019.8 1019.5 0.0
01/04:00pm 22.0 17.4 12.3 54 5.5 ESE 28 39 15 21 1019.6 1019.3 0.0
01/03:30pm 23.0 19.2 12.3 51 6.2 ESE 24 33 13 18 1019.7 1019.4 0.0
01/03:00pm 23.8 20.0 12.4 48 6.6 ESE 24 32 13 17 1019.7 1019.4 0.0
01/02:30pm 25.6 21.5 7.7 32 9.6 NE 19 32 10 17 1019.9 1019.6 0.0
01/02:00pm 25.3 21.1 7.4 32 9.6 ENE 19 33 10 18 1020.2 1019.9 0.0
01/01:30pm 25.0 21.0 8.1 34 9.1 ENE 19 28 10 15 1020.5 1020.2 0.0
01/01:00pm 25.5 21.5 8.1 33 9.4 NNE 19 22 10 12 1021.2 1020.8 0.0
01/12:30pm 24.5 20.1 7.6 34 9.0 ENE 20 30 11 16 1021.8 1021.4 0.0
01/12:00pm 23.8 19.2 8.2 37 8.4 ENE 22 32 12 17 1022.1 1021.8 0.0
01/11:30am 23.8 20.3 10.1 42 7.6 ENE 19 30 10 16 1022.4 1022.1 0.0
01/11:00am 23.0 19.9 10.4 45 7.0 NE 17 28 9 15 1023.1 1022.8 0.0
01/10:30am 21.3 18.0 10.8 51 5.8 NE 19 28 10 15 1023.5 1023.2 0.0
01/10:00am 19.8 16.4 10.5 55 5.1 NE 19 26 10 14 1023.8 1023.5 0.0
01/09:30am 18.6 15.2 10.4 59 4.5 NE 19 28 10 15 1024.1 1023.8 0.0
01/09:00am 17.4 14.1 10.8 65 3.6 NE 19 30 10 16 1024.5 1024.1 0.0
01/08:30am 15.5 11.9 9.8 69 3.0 NE 19 28 10 15 1024.4 1024.0 0.0
01/08:00am 14.0 10.2 9.8 76 2.2 NE 20 28 11 15 1024.8 1024.5 0.0
01/07:30am 12.2 8.3 9.4 83 1.4 ENE 20 30 11 16 1024.6 1024.5 0.0
01/07:00am 11.1 7.7 9.2 88 1.0 ENE 17 22 9 12 1024.5 1024.4 0.0
01/06:30am 9.7 6.0 8.0 89 0.8 ENE 17 20 9 11 1024.5 1024.4 0.0
01/06:00am 9.1 4.8 7.7 91 0.7 ENE 20 26 11 14 1024.4 1024.3 0.0
01/05:30am 8.7 4.5 7.5 92 0.6 ENE 19 22 10 12 1024.2 1024.2 0.0
01/05:00am 8.7 4.9 7.6 93 0.5 ENE 17 20 9 11 1024.2 1024.2 0.0
01/04:30am 8.9 5.2 7.8 93 0.5 ENE 17 24 9 13 1024.1 1024.1 0.0
01/04:00am 8.9 5.2 7.8 93 0.5 ENE 17 20 9 11 1024.2 1024.2 0.0
01/03:30am 9.3 5.7 8.2 93 0.5 ENE 17 24 9 13 1024.2 1024.2 0.0
01/03:00am 9.6 5.7 8.5 93 0.5 ENE 19 24 10 13 1024.4 1024.3 0.0
01/02:30am 9.6 5.7 8.5 93 0.5 NE 19 24 10 13 1024.5 1024.4 0.0
01/02:00am 9.5 6.0 8.6 94 0.4 ENE 17 24 9 13 1024.6 1024.5 0.0
01/01:30am 9.4 6.2 8.5 94 0.4 ENE 15 20 8 11 1024.7 1024.6 0.0
01/01:00am 9.7 6.6 8.8 94 0.4 ENE 15 17 8 9 1025.0 1024.9 0.0
01/12:30am 10.1 6.7 9.2 94 0.5 ENE 17 20 9 11 1025.0 1024.9 0.0
01/12:00am 9.6 6.9 9.0 96 0.3 E 13 20 7 11 1025.2 1025.1 0.0
 
Date/Time
WST
Temp
°C
App
Temp
°C
Dew
Point
Rel
Hum
%
Delta-T
°C
Wind Press
QNH
hPa
Press
MSL
hPa
Rain
since 9 am
mm
Dir
 
Spd
km/h
Gust
km/h
Spd
kts
Gust
kts
30/11:30pm 8.1 5.4 7.3 95 0.4 ENE 11 13 6 7 1025.4 1025.3 0.0
30/11:00pm 7.8 4.9 6.7 93 0.5 ENE 11 11 6 6 1025.4 1025.3 0.0
30/10:30pm 8.8 5.8 7.7 93 0.5 E 13 17 7 9 1025.3 1025.2 0.0
30/10:00pm 8.5 5.4 7.4 93 0.5 E 13 15 7 8 1025.4 1025.3 0.0
30/09:30pm 8.5 6.7 7.0 90 0.7 ESE 6 9 3 5 1025.3 1025.2 0.0
30/09:00pm 9.1 6.7 7.2 88 0.9 ESE 9 11 5 6 1025.3 1025.2 0.0
30/08:30pm 9.0 6.6 7.0 87 1.0 E 9 13 5 7 1025.2 1025.1 0.0
30/08:00pm 10.1 7.8 7.5 84 1.3 ESE 9 13 5 7 1025.1 1025.0 0.0
30/07:30pm 10.9 7.9 7.8 81 1.5 ESE 13 17 7 9 1025.0 1024.9 0.0
30/07:00pm 11.7 8.7 7.8 77 1.9 ESE 13 19 7 10 1024.6 1024.5 0.0
30/06:30pm 12.7 9.4 8.2 74 2.3 ESE 15 20 8 11 1024.1 1024.1 0.0
30/06:00pm 13.9 10.3 8.3 69 2.8 ESE 17 22 9 12 1023.9 1023.9 0.0
30/05:30pm 15.5 11.9 8.3 62 3.7 ESE 17 24 9 13 1023.8 1023.8 0.0
30/05:00pm 17.0 12.9 8.7 58 4.3 ESE 20 28 11 15 1023.6 1023.6 0.0
30/04:30pm 18.5 14.6 8.7 53 5.2 ESE 19 24 10 13 1023.3 1023.3 0.0
30/04:00pm 19.7 16.9 8.4 48 5.9 E 13 24 7 13 1023.0 1023.0 0.0
30/03:30pm 20.1 17.4 7.5 44 6.6 E 11 19 6 10 1022.8 1022.8 0.0
30/03:00pm 20.1 17.1 7.5 44 6.5 ESE 13 22 7 12 1022.6 1022.5 0.0
30/02:30pm 20.3 17.8 8.0 45 6.5 ESE 11 20 6 11 1022.7 1022.7 0.0
30/02:00pm 20.4 18.6 8.1 45 6.5 ESE 7 17 4 9 1022.7 1022.7 0.0
30/01:30pm 18.7 16.7 6.9 46 6.0 E 7 13 4 7 1022.9 1022.9 0.0
30/01:00pm 18.6 16.4 7.7 49 5.6 E 9 15 5 8 1023.2 1023.2 0.0
30/12:30pm 17.4 14.4 7.5 52 5.1 SE 13 20 7 11 1023.5 1023.5 0.0
30/12:00pm 18.3 16.1 8.0 51 5.3 SE 9 15 5 8 1023.7 1023.7 0.0
30/11:30am 16.4 14.1 7.3 55 4.6 S 9 19 5 10 1023.9 1023.9 0.0
30/11:00am 16.2 14.3 7.7 57 4.3 ESE 7 15 4 8 1024.0 1024.0 0.0
30/10:30am 15.4 13.2 7.9 61 3.8 S 9 17 5 9 1024.0 1024.0 0.0
30/10:00am 14.9 12.4 8.4 65 3.3 SSE 11 19 6 10 1024.1 1024.1 0.0
30/09:30am 15.3 12.8 8.3 63 3.6 S 11 20 6 11 1024.0 1024.0 0.0
30/09:00am 14.6 11.4 8.5 67 3.1 SSW 15 22 8 12 1023.7 1023.7 0.0
30/08:30am 13.7 10.5 8.3 70 2.7 SSW 15 20 8 11 1023.5 1023.5 0.0
30/08:00am 12.8 10.2 9.3 79 1.8 SW 13 17 7 9 1023.4 1023.4 0.0
30/07:30am 12.3 9.6 9.0 80 1.7 WSW 13 17 7 9 1023.1 1023.1 0.0
30/07:00am 11.3 9.5 9.6 89 0.9 WNW 9 13 5 7 1023.0 1023.0 0.0
30/06:30am 9.7 7.7 8.8 94 0.4 W 9 13 5 7 1022.8 1022.8 0.0
30/06:00am 9.2 7.4 8.1 93 0.5 WNW 7 11 4 6 1022.5 1022.4 0.0
30/05:30am 9.0 7.2 7.9 93 0.5 WNW 7 11 4 6 1022.1 1022.0 0.0
30/05:00am 9.7 7.7 8.5 92 0.6 W 9 13 5 7 1021.8 1021.7 0.0
30/04:30am 9.7 8.0 8.3 91 0.7 W 7 9 4 5 1021.4 1021.3 0.0
30/04:00am 9.7 8.1 8.6 93 0.5 W 7 11 4 6 1021.0 1020.9 0.0
30/03:30am 8.9 8.4 7.8 93 0.5 CALM 0 0 0 0 1020.5 1020.5 0.0
30/03:00am 8.6 6.6 7.2 91 0.7 W 7 11 4 6 1020.2 1020.2 0.0
30/02:30am 9.4 7.2 7.7 89 0.8 WNW 9 13 5 7 1020.0 1020.0 0.0
30/02:00am 10.2 8.7 8.3 88 0.9 W 6 9 3 5 1019.9 1019.9 0.0
30/01:30am 9.8 8.0 7.9 88 0.9 WNW 7 11 4 6 1020.1 1020.1 0.0
30/01:00am 9.4 6.7 7.3 87 1.0 W 11 15 6 8 1019.9 1019.9 0.0
30/12:30am 8.6 5.5 7.1 90 0.7 W 13 17 7 9 1019.8 1019.8 0.0
30/12:00am 7.8 4.5 6.3 90 0.7 W 13 15 7 8 1019.6 1019.5 0.0
 
Date/Time
WST
Temp
°C
App
Temp
°C
Dew
Point
Rel
Hum
%
Delta-T
°C
Wind Press
QNH
hPa
Press
MSL
hPa
Rain
since 9 am
mm
Dir
 
Spd
km/h
Gust
km/h
Spd
kts
Gust
kts
29/11:30pm 7.8 5.2 5.9 88 0.9 WNW 9 11 5 6 1019.4 1019.3 0.0
29/11:00pm 8.5 5.2 6.5 87 0.9 WNW 13 15 7 8 1019.2 1019.1 0.0

Other Formats:

Comma delimited format used in spreadsheet applications
http://www.bom.gov.au/fwo/IDW60801/IDW60801.95636.axf

JavaScript Object Notation format (JSON) in row-major order
http://www.bom.gov.au/fwo/IDW60801/IDW60801.95636.json